sensor_id;sensor_type;location;lat;lon;timestamp;pressure;altitude;pressure_sealevel;temperature;humidity
38852;BME280;24605;50.092;9.182;2023-01-16T00:01:57;96549.84;;;3.61;100.00
38852;BME280;24605;50.092;9.182;2023-01-16T00:07:47;96498.50;;;3.40;100.00
38852;BME280;24605;50.092;9.182;2023-01-16T00:10:14;96522.97;;;3.54;100.00
38852;BME280;24605;50.092;9.182;2023-01-16T00:12:47;96510.81;;;3.38;100.00
38852;BME280;24605;50.092;9.182;2023-01-16T00:15:15;96479.53;;;3.23;100.00
38852;BME280;24605;50.092;9.182;2023-01-16T00:17:44;96514.56;;;3.60;100.00
38852;BME280;24605;50.092;9.182;2023-01-16T00:20:13;96413.81;;;3.08;100.00
38852;BME280;24605;50.092;9.182;2023-01-16T00:22:41;96431.28;;;3.14;100.00
38852;BME280;24605;50.092;9.182;2023-01-16T00:25:09;96502.59;;;3.68;100.00
38852;BME280;24605;50.092;9.182;2023-01-16T00:27:37;96483.28;;;3.37;100.00
38852;BME280;24605;50.092;9.182;2023-01-16T00:30:05;96483.47;;;3.52;100.00
38852;BME280;24605;50.092;9.182;2023-01-16T00:32:34;96477.94;;;3.55;100.00
38852;BME280;24605;50.092;9.182;2023-01-16T00:35:03;96467.94;;;3.60;100.00
38852;BME280;24605;50.092;9.182;2023-01-16T00:37:32;96433.41;;;3.27;100.00
38852;BME280;24605;50.092;9.182;2023-01-16T00:40:00;96368.66;;;2.86;100.00
38852;BME280;24605;50.092;9.182;2023-01-16T00:42:29;96418.19;;;3.16;100.00
38852;BME280;24605;50.092;9.182;2023-01-16T00:44:58;96385.97;;;3.02;100.00
38852;BME280;24605;50.092;9.182;2023-01-16T00:47:25;96378.19;;;3.02;100.00
38852;BME280;24605;50.092;9.182;2023-01-16T00:49:53;96388.25;;;3.05;100.00
38852;BME280;24605;50.092;9.182;2023-01-16T00:52:23;96436.19;;;3.34;100.00
38852;BME280;24605;50.092;9.182;2023-01-16T00:54:52;96376.25;;;3.04;100.00
38852;BME280;24605;50.092;9.182;2023-01-16T00:57:21;96454.81;;;3.62;100.00
38852;BME280;24605;50.092;9.182;2023-01-16T00:59:57;96459.31;;;3.60;100.00
38852;BME280;24605;50.092;9.182;2023-01-16T01:02:32;96368.31;;;3.05;100.00
38852;BME280;24605;50.092;9.182;2023-01-16T01:05:02;96358.31;;;3.02;100.00
38852;BME280;24605;50.092;9.182;2023-01-16T01:07:35;96352.31;;;3.10;100.00
38852;BME280;24605;50.092;9.182;2023-01-16T01:10:02;96445.56;;;3.76;100.00
38852;BME280;24605;50.092;9.182;2023-01-16T01:12:29;96443.94;;;3.75;100.00
38852;BME280;24605;50.092;9.182;2023-01-16T01:14:55;96346.66;;;3.06;100.00
38852;BME280;24605;50.092;9.182;2023-01-16T01:17:22;96430.34;;;3.65;100.00
38852;BME280;24605;50.092;9.182;2023-01-16T01:19:48;96372.72;;;3.29;100.00
38852;BME280;24605;50.092;9.182;2023-01-16T01:22:15;96385.66;;;3.38;100.00
38852;BME280;24605;50.092;9.182;2023-01-16T01:24:51;96318.81;;;2.92;100.00
38852;BME280;24605;50.092;9.182;2023-01-16T01:27:32;96360.91;;;3.27;100.00
38852;BME280;24605;50.092;9.182;2023-01-16T01:30:20;96411.88;;;3.59;100.00
38852;BME280;24605;50.092;9.182;2023-01-16T01:32:59;96397.63;;;3.47;100.00
38852;BME280;24605;50.092;9.182;2023-01-16T01:35:45;96387.59;;;3.19;100.00
38852;BME280;24605;50.092;9.182;2023-01-16T01:38:16;96371.09;;;3.20;100.00
38852;BME280;24605;50.092;9.182;2023-01-16T01:40:47;96405.59;;;3.37;100.00
38852;BME280;24605;50.092;9.182;2023-01-16T01:43:17;96315.94;;;2.95;100.00
38852;BME280;24605;50.092;9.182;2023-01-16T01:45:49;96350.19;;;3.22;100.00
38852;BME280;24605;50.092;9.182;2023-01-16T01:48:28;96240.84;;;2.54;100.00
38852;BME280;24605;50.092;9.182;2023-01-16T01:51:01;96369.81;;;3.41;100.00
38852;BME280;24605;50.092;9.182;2023-01-16T01:53:43;96359.44;;;3.49;100.00
38852;BME280;24605;50.092;9.182;2023-01-16T01:56:26;96260.44;;;2.89;100.00
38852;BME280;24605;50.092;9.182;2023-01-16T01:59:23;96226.16;;;2.62;100.00
38852;BME280;24605;50.092;9.182;2023-01-16T02:01:56;96361.84;;;3.42;100.00
38852;BME280;24605;50.092;9.182;2023-01-16T02:04:24;96354.56;;;3.54;100.00
38852;BME280;24605;50.092;9.182;2023-01-16T02:07:00;96333.34;;;3.51;100.00
38852;BME280;24605;50.092;9.182;2023-01-16T02:09:42;96343.38;;;3.62;100.00
38852;BME280;24605;50.092;9.182;2023-01-16T02:33:29;96259.66;;;3.53;100.00
38852;BME280;24605;50.092;9.182;2023-01-16T02:36:51;96270.81;;;3.62;100.00
38852;BME280;24605;50.092;9.182;2023-01-16T02:39:39;96201.19;;;3.11;100.00
38852;BME280;24605;50.092;9.182;2023-01-16T02:42:16;96215.69;;;3.37;100.00
38852;BME280;24605;50.092;9.182;2023-01-16T02:44:59;96268.38;;;3.69;100.00
38852;BME280;24605;50.092;9.182;2023-01-16T02:54:35;96227.75;;;3.61;100.00
38852;BME280;24605;50.092;9.182;2023-01-16T02:57:12;96190.44;;;3.39;100.00
38852;BME280;24605;50.092;9.182;2023-01-16T02:59:41;96209.34;;;3.48;100.00
38852;BME280;24605;50.092;9.182;2023-01-16T03:02:08;96220.47;;;3.56;100.00
38852;BME280;24605;50.092;9.182;2023-01-16T03:04:44;96216.22;;;3.64;100.00
38852;BME280;24605;50.092;9.182;2023-01-16T03:07:27;96094.47;;;2.84;100.00
38852;BME280;24605;50.092;9.182;2023-01-16T03:10:10;96094.78;;;2.97;100.00
38852;BME280;24605;50.092;9.182;2023-01-16T03:12:49;96105.25;;;3.04;100.00
38852;BME280;24605;50.092;9.182;2023-01-16T03:15:23;96080.91;;;2.90;100.00
38852;BME280;24605;50.092;9.182;2023-01-16T03:18:04;96156.75;;;3.39;100.00
38852;BME280;24605;50.092;9.182;2023-01-16T03:20:40;96162.06;;;3.45;100.00
38852;BME280;24605;50.092;9.182;2023-01-16T03:23:10;96060.72;;;2.77;100.00
38852;BME280;24605;50.092;9.182;2023-01-16T03:25:45;96068.91;;;2.97;100.00
38852;BME280;24605;50.092;9.182;2023-01-16T03:28:20;96144.69;;;3.54;100.00
38852;BME280;24605;50.092;9.182;2023-01-16T03:30:53;96072.97;;;2.92;100.00
38852;BME280;24605;50.092;9.182;2023-01-16T03:33:29;96077.94;;;2.93;100.00
38852;BME280;24605;50.092;9.182;2023-01-16T03:36:01;96090.38;;;3.06;100.00
38852;BME280;24605;50.092;9.182;2023-01-16T05:13:26;95933.22;;;3.38;100.00
38852;BME280;24605;50.092;9.182;2023-01-16T05:15:54;95924.06;;;3.27;100.00
38852;BME280;24605;50.092;9.182;2023-01-16T05:18:20;95917.56;;;3.32;100.00
38852;BME280;24605;50.092;9.182;2023-01-16T05:20:47;95906.28;;;3.24;100.00
38852;BME280;24605;50.092;9.182;2023-01-16T05:23:14;95906.03;;;3.34;100.00
38852;BME280;24605;50.092;9.182;2023-01-16T05:25:40;95892.72;;;3.22;100.00
38852;BME280;24605;50.092;9.182;2023-01-16T05:28:07;95885.06;;;3.29;100.00
38852;BME280;24605;50.092;9.182;2023-01-16T05:30:35;95870.25;;;3.38;100.00
38852;BME280;24605;50.092;9.182;2023-01-16T05:33:01;95862.63;;;3.21;100.00
38852;BME280;24605;50.092;9.182;2023-01-16T05:35:30;95864.75;;;3.18;100.00
38852;BME280;24605;50.092;9.182;2023-01-16T05:37:56;95850.66;;;3.20;100.00
38852;BME280;24605;50.092;9.182;2023-01-16T05:40:23;95755.63;;;2.67;100.00
38852;BME280;24605;50.092;9.182;2023-01-16T05:42:49;95839.78;;;3.02;100.00
38852;BME280;24605;50.092;9.182;2023-01-16T05:45:16;95850.19;;;3.17;100.00
38852;BME280;24605;50.092;9.182;2023-01-16T05:47:44;95842.16;;;3.11;100.00
38852;BME280;24605;50.092;9.182;2023-01-16T05:50:10;95802.13;;;2.99;100.00
38852;BME280;24605;50.092;9.182;2023-01-16T05:52:37;95827.34;;;3.20;100.00
38852;BME280;24605;50.092;9.182;2023-01-16T05:55:04;95817.41;;;3.09;100.00
38852;BME280;24605;50.092;9.182;2023-01-16T05:57:31;95807.69;;;3.11;100.00
38852;BME280;24605;50.092;9.182;2023-01-16T05:59:58;95804.25;;;2.95;100.00
38852;BME280;24605;50.092;9.182;2023-01-16T06:02:24;95742.53;;;2.69;100.00
38852;BME280;24605;50.092;9.182;2023-01-16T06:04:52;95766.75;;;2.76;100.00
38852;BME280;24605;50.092;9.182;2023-01-16T06:07:19;95777.63;;;2.87;100.00
38852;BME280;24605;50.092;9.182;2023-01-16T06:09:45;95784.41;;;2.73;100.00
38852;BME280;24605;50.092;9.182;2023-01-16T06:12:14;95776.44;;;2.74;100.00
38852;BME280;24605;50.092;9.182;2023-01-16T06:14:41;95761.72;;;2.75;100.00
38852;BME280;24605;50.092;9.182;2023-01-16T06:17:07;95753.69;;;2.70;100.00
38852;BME280;24605;50.092;9.182;2023-01-16T06:19:34;95738.56;;;2.58;100.00
38852;BME280;24605;50.092;9.182;2023-01-16T06:22:02;95740.94;;;2.45;100.00
38852;BME280;24605;50.092;9.182;2023-01-16T06:24:28;95726.22;;;2.45;100.00
38852;BME280;24605;50.092;9.182;2023-01-16T06:26:55;95718.97;;;2.41;100.00
38852;BME280;24605;50.092;9.182;2023-01-16T06:29:21;95711.75;;;2.36;100.00
38852;BME280;24605;50.092;9.182;2023-01-16T06:31:48;95712.19;;;2.40;100.00
38852;BME280;24605;50.092;9.182;2023-01-16T06:34:14;95707.66;;;2.42;100.00
38852;BME280;24605;50.092;9.182;2023-01-16T06:36:41;95701.97;;;2.46;100.00
38852;BME280;24605;50.092;9.182;2023-01-16T06:39:10;95696.88;;;2.38;100.00
38852;BME280;24605;50.092;9.182;2023-01-16T06:41:36;95591.69;;;1.77;100.00
38852;BME280;24605;50.092;9.182;2023-01-16T06:44:03;95664.75;;;2.32;100.00
38852;BME280;24605;50.092;9.182;2023-01-16T06:46:30;95686.66;;;2.45;100.00
38852;BME280;24605;50.092;9.182;2023-01-16T06:48:56;95682.25;;;2.45;100.00
38852;BME280;24605;50.092;9.182;2023-01-16T06:51:23;95686.88;;;2.35;100.00
38852;BME280;24605;50.092;9.182;2023-01-16T06:53:49;95682.50;;;2.35;100.00
38852;BME280;24605;50.092;9.182;2023-01-16T06:56:17;95682.22;;;2.30;100.00
38852;BME280;24605;50.092;9.182;2023-01-16T06:58:44;95656.78;;;2.19;100.00
38852;BME280;24605;50.092;9.182;2023-01-16T07:01:10;95659.84;;;2.23;100.00
38852;BME280;24605;50.092;9.182;2023-01-16T07:03:37;95651.25;;;2.22;100.00
38852;BME280;24605;50.092;9.182;2023-01-16T07:06:04;95643.41;;;2.15;100.00
38852;BME280;24605;50.092;9.182;2023-01-16T07:08:30;95601.44;;;1.90;100.00
38852;BME280;24605;50.092;9.182;2023-01-16T07:10:58;95634.31;;;2.19;100.00
38852;BME280;24605;50.092;9.182;2023-01-16T07:13:27;95641.81;;;2.14;100.00
38852;BME280;24605;50.092;9.182;2023-01-16T07:15:54;95608.34;;;1.98;100.00
38852;BME280;24605;50.092;9.182;2023-01-16T07:18:38;95633.88;;;2.16;100.00
38852;BME280;24605;50.092;9.182;2023-01-16T07:21:26;95623.28;;;2.26;100.00
38852;BME280;24605;50.092;9.182;2023-01-16T07:24:20;95628.28;;;2.27;100.00
38852;BME280;24605;50.092;9.182;2023-01-16T07:26:50;95627.47;;;2.27;100.00
38852;BME280;24605;50.092;9.182;2023-01-16T07:29:19;95622.41;;;2.33;100.00
38852;BME280;24605;50.092;9.182;2023-01-16T07:31:46;95612.88;;;2.34;100.00
38852;BME280;24605;50.092;9.182;2023-01-16T07:34:13;95608.84;;;2.31;100.00
38852;BME280;24605;50.092;9.182;2023-01-16T07:36:39;95609.03;;;2.30;100.00
38852;BME280;24605;50.092;9.182;2023-01-16T07:39:06;95579.06;;;2.21;100.00
38852;BME280;24605;50.092;9.182;2023-01-16T07:41:32;95593.34;;;2.31;100.00
38852;BME280;24605;50.092;9.182;2023-01-16T07:43:59;95577.31;;;2.36;100.00
38852;BME280;24605;50.092;9.182;2023-01-16T07:46:26;95557.16;;;2.31;100.00
38852;BME280;24605;50.092;9.182;2023-01-16T07:48:53;95557.59;;;2.35;100.00
38852;BME280;24605;50.092;9.182;2023-01-16T07:51:21;95476.09;;;1.79;100.00
38852;BME280;24605;50.092;9.182;2023-01-16T07:53:48;95551.81;;;2.33;100.00
38852;BME280;24605;50.092;9.182;2023-01-16T07:56:14;95549.75;;;2.43;100.00
38852;BME280;24605;50.092;9.182;2023-01-16T07:58:41;95530.78;;;2.36;100.00
38852;BME280;24605;50.092;9.182;2023-01-16T08:01:08;95526.69;;;2.42;100.00
38852;BME280;24605;50.092;9.182;2023-01-16T08:03:37;95530.97;;;2.49;100.00
38852;BME280;24605;50.092;9.182;2023-01-16T08:06:04;95521.22;;;2.51;100.00
38852;BME280;24605;50.092;9.182;2023-01-16T08:08:31;95516.88;;;2.52;100.00
38852;BME280;24605;50.092;9.182;2023-01-16T08:10:58;95523.13;;;2.58;100.00
38852;BME280;24605;50.092;9.182;2023-01-16T08:13:45;95522.59;;;2.62;100.00
38852;BME280;24605;50.092;9.182;2023-01-16T08:16:11;95507.22;;;2.61;100.00
38852;BME280;24605;50.092;9.182;2023-01-16T08:18:39;95496.97;;;2.67;100.00
38852;BME280;24605;50.092;9.182;2023-01-16T08:21:06;95489.84;;;2.70;100.00
38852;BME280;24605;50.092;9.182;2023-01-16T08:23:32;95489.47;;;2.73;100.00
38852;BME280;24605;50.092;9.182;2023-01-16T08:25:59;95482.50;;;2.73;100.00
38852;BME280;24605;50.092;9.182;2023-01-16T08:28:26;95477.78;;;2.77;100.00
38852;BME280;24605;50.092;9.182;2023-01-16T08:30:52;95440.44;;;2.64;100.00
38852;BME280;24605;50.092;9.182;2023-01-16T08:33:19;95471.75;;;2.91;100.00
38852;BME280;24605;50.092;9.182;2023-01-16T08:35:46;95464.94;;;3.05;100.00
38852;BME280;24605;50.092;9.182;2023-01-16T08:38:13;95398.75;;;2.74;100.00
38852;BME280;24605;50.092;9.182;2023-01-16T08:40:39;95455.28;;;3.14;100.00
38852;BME280;24605;50.092;9.182;2023-01-16T08:43:07;95450.97;;;3.21;100.00
38852;BME280;24605;50.092;9.182;2023-01-16T08:45:52;95425.19;;;3.13;100.00
38852;BME280;24605;50.092;9.182;2023-01-16T08:48:47;95432.28;;;3.26;100.00
38852;BME280;24605;50.092;9.182;2023-01-16T08:51:33;95432.22;;;3.41;99.78
38852;BME280;24605;50.092;9.182;2023-01-16T08:54:00;95419.09;;;3.42;99.77
38852;BME280;24605;50.092;9.182;2023-01-16T08:56:26;95413.25;;;3.34;100.00
38852;BME280;24605;50.092;9.182;2023-01-16T08:58:53;95386.72;;;3.32;98.36
38852;BME280;24605;50.092;9.182;2023-01-16T09:01:20;95404.16;;;3.44;98.54
38852;BME280;24605;50.092;9.182;2023-01-16T09:03:46;95405.09;;;3.37;98.20
38852;BME280;24605;50.092;9.182;2023-01-16T09:06:13;95411.78;;;3.53;97.98
38852;BME280;24605;50.092;9.182;2023-01-16T09:08:40;95352.44;;;3.29;97.47
38852;BME280;24605;50.092;9.182;2023-01-16T09:11:07;95384.88;;;3.82;96.33
38852;BME280;24605;50.092;9.182;2023-01-16T09:13:51;95386.84;;;3.80;95.96
38852;BME280;24605;50.092;9.182;2023-01-16T09:16:19;95348.28;;;3.64;95.07
38852;BME280;24605;50.092;9.182;2023-01-16T09:18:46;95378.34;;;3.86;94.89
38852;BME280;24605;50.092;9.182;2023-01-16T09:21:13;95356.72;;;3.72;95.01
38852;BME280;24605;50.092;9.182;2023-01-16T09:23:41;95363.50;;;4.08;94.58
38852;BME280;24605;50.092;9.182;2023-01-16T09:26:08;95309.22;;;3.58;93.42
38852;BME280;24605;50.092;9.182;2023-01-16T09:28:34;95347.91;;;4.02;92.32
38852;BME280;24605;50.092;9.182;2023-01-16T09:31:01;95352.31;;;4.08;92.11
38852;BME280;24605;50.092;9.182;2023-01-16T09:33:27;95353.47;;;3.99;91.26
38852;BME280;24605;50.092;9.182;2023-01-16T09:35:54;95329.81;;;4.15;90.29
38852;BME280;24605;50.092;9.182;2023-01-16T09:38:20;95346.03;;;4.37;89.21
38852;BME280;24605;50.092;9.182;2023-01-16T09:40:52;95246.56;;;3.83;89.42
38852;BME280;24605;50.092;9.182;2023-01-16T09:43:31;95345.84;;;4.32;88.89
38852;BME280;24605;50.092;9.182;2023-01-16T09:46:03;95346.88;;;4.38;89.68
38852;BME280;24605;50.092;9.182;2023-01-16T09:48:32;95340.41;;;4.20;90.32
38852;BME280;24605;50.092;9.182;2023-01-16T09:51:02;95346.59;;;4.19;88.64
38852;BME280;24605;50.092;9.182;2023-01-16T09:53:36;95347.78;;;4.23;89.57
38852;BME280;24605;50.092;9.182;2023-01-16T09:56:27;95321.53;;;3.91;89.67
38852;BME280;24605;50.092;9.182;2023-01-16T09:59:27;95347.97;;;4.15;88.28
38852;BME280;24605;50.092;9.182;2023-01-16T10:02:00;95328.38;;;4.06;89.97
38852;BME280;24605;50.092;9.182;2023-01-16T10:04:29;95329.06;;;4.21;91.85
38852;BME280;24605;50.092;9.182;2023-01-16T10:07:09;95312.22;;;4.04;92.51
38852;BME280;24605;50.092;9.182;2023-01-16T10:09:46;95291.06;;;3.94;93.30
38852;BME280;24605;50.092;9.182;2023-01-16T10:12:17;95300.84;;;3.98;94.25
38852;BME280;24605;50.092;9.182;2023-01-16T10:15:04;95285.06;;;3.93;94.08
38852;BME280;24605;50.092;9.182;2023-01-16T10:17:44;95282.88;;;3.90;94.53
38852;BME280;24605;50.092;9.182;2023-01-16T10:20:34;95284.34;;;4.13;93.35
38852;BME280;24605;50.092;9.182;2023-01-16T10:23:14;95281.78;;;4.19;91.22
38852;BME280;24605;50.092;9.182;2023-01-16T10:25:48;95291.31;;;4.19;91.42
38852;BME280;24605;50.092;9.182;2023-01-16T10:28:34;95274.97;;;4.05;91.10
38852;BME280;24605;50.092;9.182;2023-01-16T10:31:11;95262.38;;;4.02;91.20
38852;BME280;24605;50.092;9.182;2023-01-16T10:33:42;95229.59;;;3.81;91.47
38852;BME280;24605;50.092;9.182;2023-01-16T10:36:14;95255.59;;;4.01;91.15
38852;BME280;24605;50.092;9.182;2023-01-16T10:38:44;95235.63;;;3.95;91.87
38852;BME280;24605;50.092;9.182;2023-01-16T10:41:15;95252.38;;;3.92;92.06
38852;BME280;24605;50.092;9.182;2023-01-16T10:44:04;95236.66;;;4.00;92.83
38852;BME280;24605;50.092;9.182;2023-01-16T10:46:50;95245.97;;;3.88;93.95
38852;BME280;24605;50.092;9.182;2023-01-16T10:49:34;95243.75;;;3.78;95.71
38852;BME280;24605;50.092;9.182;2023-01-16T10:52:03;95215.34;;;3.56;97.15
38852;BME280;24605;50.092;9.182;2023-01-16T10:54:30;95237.56;;;3.72;99.72
38852;BME280;24605;50.092;9.182;2023-01-16T10:56:57;95217.00;;;3.22;100.00
38852;BME280;24605;50.092;9.182;2023-01-16T10:59:30;95204.16;;;3.07;100.00
38852;BME280;24605;50.092;9.182;2023-01-16T11:02:01;95213.22;;;3.25;100.00
38852;BME280;24605;50.092;9.182;2023-01-16T11:04:33;95215.53;;;3.13;100.00
38852;BME280;24605;50.092;9.182;2023-01-16T11:07:13;95214.31;;;3.09;100.00
38852;BME280;24605;50.092;9.182;2023-01-16T11:09:42;95192.13;;;2.93;100.00
38852;BME280;24605;50.092;9.182;2023-01-16T11:12:11;95197.69;;;2.90;100.00
38852;BME280;24605;50.092;9.182;2023-01-16T11:14:59;95196.97;;;2.74;100.00
38852;BME280;24605;50.092;9.182;2023-01-16T11:17:58;95199.75;;;2.73;100.00
38852;BME280;24605;50.092;9.182;2023-01-16T11:20:42;95194.44;;;2.81;100.00
38852;BME280;24605;50.092;9.182;2023-01-16T11:23:16;95185.06;;;2.51;100.00
38852;BME280;24605;50.092;9.182;2023-01-16T11:25:45;95176.56;;;2.58;100.00
38852;BME280;24605;50.092;9.182;2023-01-16T11:28:16;95172.59;;;2.62;100.00
38852;BME280;24605;50.092;9.182;2023-01-16T11:30:46;95167.50;;;2.69;100.00
38852;BME280;24605;50.092;9.182;2023-01-16T11:33:15;95168.34;;;2.47;100.00
38852;BME280;24605;50.092;9.182;2023-01-16T11:35:50;95158.63;;;2.49;100.00
38852;BME280;24605;50.092;9.182;2023-01-16T11:38:18;95160.63;;;2.54;100.00
38852;BME280;24605;50.092;9.182;2023-01-16T11:40:46;95152.69;;;2.56;100.00
38852;BME280;24605;50.092;9.182;2023-01-16T11:43:15;95143.19;;;2.63;100.00
38852;BME280;24605;50.092;9.182;2023-01-16T11:46:05;95143.66;;;2.73;100.00
38852;BME280;24605;50.092;9.182;2023-01-16T11:48:38;95124.09;;;2.64;100.00
38852;BME280;24605;50.092;9.182;2023-01-16T11:51:08;95125.53;;;2.73;100.00
38852;BME280;24605;50.092;9.182;2023-01-16T11:53:36;95119.63;;;2.86;100.00
38852;BME280;24605;50.092;9.182;2023-01-16T11:59:01;95102.16;;;2.88;100.00
38852;BME280;24605;50.092;9.182;2023-01-16T12:01:40;95104.19;;;3.00;100.00
38852;BME280;24605;50.092;9.182;2023-01-16T12:04:32;95080.28;;;2.97;100.00
38852;BME280;24605;50.092;9.182;2023-01-16T12:07:05;95078.09;;;2.94;100.00
38852;BME280;24605;50.092;9.182;2023-01-16T12:09:41;95075.31;;;3.03;100.00
38852;BME280;24605;50.092;9.182;2023-01-16T12:12:15;95062.63;;;3.08;100.00
38852;BME280;24605;50.092;9.182;2023-01-16T12:15:02;95047.31;;;3.26;100.00
38852;BME280;24605;50.092;9.182;2023-01-16T12:17:47;95039.59;;;3.40;100.00
38852;BME280;24605;50.092;9.182;2023-01-16T12:20:22;95020.09;;;3.37;100.00
38852;BME280;24605;50.092;9.182;2023-01-16T12:23:00;95025.28;;;3.51;100.00
38852;BME280;24605;50.092;9.182;2023-01-16T12:25:35;95024.09;;;3.60;100.00
38852;BME280;24605;50.092;9.182;2023-01-16T12:28:10;95015.72;;;3.51;100.00
38852;BME280;24605;50.092;9.182;2023-01-16T12:30:58;95001.56;;;3.47;100.00
38852;BME280;24605;50.092;9.182;2023-01-16T12:33:44;94987.63;;;3.61;100.00
38852;BME280;24605;50.092;9.182;2023-01-16T12:36:20;94992.63;;;3.70;100.00
38852;BME280;24605;50.092;9.182;2023-01-16T12:38:55;94968.69;;;3.41;100.00
38852;BME280;24605;50.092;9.182;2023-01-16T12:41:28;94981.63;;;3.54;100.00
38852;BME280;24605;50.092;9.182;2023-01-16T12:44:40;94979.66;;;3.50;100.00
38852;BME280;24605;50.092;9.182;2023-01-16T12:47:33;94960.72;;;3.49;100.00
38852;BME280;24605;50.092;9.182;2023-01-16T12:50:14;94942.59;;;3.36;100.00
38852;BME280;24605;50.092;9.182;2023-01-16T12:52:56;94952.34;;;3.47;100.00
38852;BME280;24605;50.092;9.182;2023-01-16T12:55:34;94954.56;;;3.43;100.00
38852;BME280;24605;50.092;9.182;2023-01-16T12:58:10;94943.41;;;3.56;100.00
38852;BME280;24605;50.092;9.182;2023-01-16T13:00:40;94949.16;;;3.52;100.00
38852;BME280;24605;50.092;9.182;2023-01-16T13:03:15;94935.03;;;3.41;100.00
38852;BME280;24605;50.092;9.182;2023-01-16T13:05:46;94927.88;;;3.36;100.00
38852;BME280;24605;50.092;9.182;2023-01-16T13:08:17;94916.69;;;3.42;100.00
38852;BME280;24605;50.092;9.182;2023-01-16T13:10:49;94899.19;;;3.51;100.00
38852;BME280;24605;50.092;9.182;2023-01-16T13:13:37;94886.19;;;3.78;100.00
38852;BME280;24605;50.092;9.182;2023-01-16T13:16:11;94890.94;;;3.88;100.00
38852;BME280;24605;50.092;9.182;2023-01-16T13:18:42;94870.38;;;4.00;100.00
38852;BME280;24605;50.092;9.182;2023-01-16T13:21:13;94869.97;;;4.10;100.00
38852;BME280;24605;50.092;9.182;2023-01-16T13:23:47;94865.72;;;4.22;100.00
38852;BME280;24605;50.092;9.182;2023-01-16T13:26:16;94869.97;;;4.10;100.00
38852;BME280;24605;50.092;9.182;2023-01-16T13:28:47;94868.03;;;3.85;100.00
38852;BME280;24605;50.092;9.182;2023-01-16T13:31:24;94850.72;;;3.79;100.00
38852;BME280;24605;50.092;9.182;2023-01-16T13:33:55;94865.09;;;3.68;100.00
38852;BME280;24605;50.092;9.182;2023-01-16T13:36:48;94866.31;;;3.45;100.00
38852;BME280;24605;50.092;9.182;2023-01-16T13:39:40;94836.84;;;3.33;100.00
38852;BME280;24605;50.092;9.182;2023-01-16T13:42:11;94848.78;;;3.47;100.00
38852;BME280;24605;50.092;9.182;2023-01-16T13:44:42;94849.75;;;3.59;100.00
38852;BME280;24605;50.092;9.182;2023-01-16T13:47:31;94827.63;;;3.64;100.00
38852;BME280;24605;50.092;9.182;2023-01-16T13:50:05;94827.22;;;3.73;100.00
38852;BME280;24605;50.092;9.182;2023-01-16T13:52:33;94818.03;;;3.78;100.00
38852;BME280;24605;50.092;9.182;2023-01-16T13:55:02;94804.91;;;3.72;100.00
38852;BME280;24605;50.092;9.182;2023-01-16T13:57:32;94811.22;;;3.90;100.00
38852;BME280;24605;50.092;9.182;2023-01-16T14:00:00;94783.72;;;3.82;100.00
38852;BME280;24605;50.092;9.182;2023-01-16T14:02:40;94797.56;;;4.08;100.00
38852;BME280;24605;50.092;9.182;2023-01-16T14:05:29;94771.25;;;4.11;100.00
38852;BME280;24605;50.092;9.182;2023-01-16T14:08:20;94773.03;;;4.11;100.00
38852;BME280;24605;50.092;9.182;2023-01-16T14:11:28;94769.06;;;4.08;100.00
38852;BME280;24605;50.092;9.182;2023-01-16T14:14:25;94763.72;;;4.03;100.00
38852;BME280;24605;50.092;9.182;2023-01-16T14:17:07;94753.69;;;4.13;100.00
38852;BME280;24605;50.092;9.182;2023-01-16T14:19:39;94750.88;;;4.15;100.00
38852;BME280;24605;50.092;9.182;2023-01-16T14:22:17;94751.66;;;4.15;100.00
38852;BME280;24605;50.092;9.182;2023-01-16T14:25:04;94705.41;;;3.80;100.00
38852;BME280;24605;50.092;9.182;2023-01-16T14:27:36;94744.81;;;3.96;100.00
38852;BME280;24605;50.092;9.182;2023-01-16T14:30:04;94724.09;;;3.89;100.00
38852;BME280;24605;50.092;9.182;2023-01-16T14:32:33;94714.16;;;3.86;100.00
38852;BME280;24605;50.092;9.182;2023-01-16T14:35:03;94709.91;;;3.98;100.00
38852;BME280;24605;50.092;9.182;2023-01-16T14:37:38;94721.50;;;3.96;100.00
38852;BME280;24605;50.092;9.182;2023-01-16T14:40:19;94703.97;;;3.91;100.00
38852;BME280;24605;50.092;9.182;2023-01-16T14:42:48;94702.78;;;3.87;100.00
38852;BME280;24605;50.092;9.182;2023-01-16T14:45:37;94686.00;;;3.96;100.00
38852;BME280;24605;50.092;9.182;2023-01-16T14:48:35;94674.13;;;3.82;100.00
38852;BME280;24605;50.092;9.182;2023-01-16T14:51:29;94685.66;;;3.86;100.00
38852;BME280;24605;50.092;9.182;2023-01-16T14:54:17;94676.34;;;3.78;100.00
38852;BME280;24605;50.092;9.182;2023-01-16T14:57:08;94668.06;;;3.95;100.00
38852;BME280;24605;50.092;9.182;2023-01-16T14:59:37;94643.78;;;3.57;100.00
38852;BME280;24605;50.092;9.182;2023-01-16T15:02:08;94645.28;;;3.71;100.00
38852;BME280;24605;50.092;9.182;2023-01-16T15:04:58;94637.47;;;3.78;100.00
38852;BME280;24605;50.092;9.182;2023-01-16T15:07:31;94618.00;;;3.69;100.00
38852;BME280;24605;50.092;9.182;2023-01-16T15:10:00;94613.63;;;3.63;100.00
38852;BME280;24605;50.092;9.182;2023-01-16T15:12:37;94612.22;;;3.67;100.00
38852;BME280;24605;50.092;9.182;2023-01-16T15:15:05;94607.63;;;3.69;100.00
38852;BME280;24605;50.092;9.182;2023-01-16T15:17:34;94603.44;;;3.74;100.00
38852;BME280;24605;50.092;9.182;2023-01-16T15:20:24;94588.94;;;3.60;100.00
38852;BME280;24605;50.092;9.182;2023-01-16T15:23:18;94571.06;;;3.52;100.00
38852;BME280;24605;50.092;9.182;2023-01-16T15:25:54;94566.13;;;3.50;100.00
38852;BME280;24605;50.092;9.182;2023-01-16T15:28:33;94560.59;;;3.40;100.00
38852;BME280;24605;50.092;9.182;2023-01-16T15:31:05;94561.97;;;3.42;100.00
38852;BME280;24605;50.092;9.182;2023-01-16T15:33:33;94561.44;;;3.34;100.00
38852;BME280;24605;50.092;9.182;2023-01-16T15:36:16;94552.66;;;3.35;100.00
38852;BME280;24605;50.092;9.182;2023-01-16T15:38:44;94534.00;;;3.19;100.00
38852;BME280;24605;50.092;9.182;2023-01-16T15:41:11;94540.19;;;3.18;100.00
38852;BME280;24605;50.092;9.182;2023-01-16T15:43:41;94540.53;;;3.28;100.00
38852;BME280;24605;50.092;9.182;2023-01-16T15:46:31;94524.91;;;3.10;100.00